Flight Track Log - Related Links

Times and Time Zones

All times are in EDT time to prevent confusion due to time zone crossing. See the SWA303 flight status page for this flight to view local times or setup timezone preferences in your user account.

Time Position Orientation Groundspeed Altitude Reporting Facility
EDT Latitude Longitude Course Direction KTS km/h feet Rate Location/Type
Thu 14:50:33 39.9333 -104.6500 84° East 207 383 7.500  Level Denver TRACON
Thu 14:52:04 39.9506 -104.5011 81° East 299 554 10.000 1.389 Climbing Denver Center
Thu 14:52:21 39.9500 -104.4667 91° East 314 581 10.000 944 Level Denver TRACON
Thu 14:53:33 39.9333 -104.3333 99° East 321 594 11.400 1.907 Climbing Denver TRACON
Thu 14:54:08 39.9250 -104.2664 99° East 325 602 13.400 2.752 Climbing Denver Center
Thu 14:55:22 39.9031 -104.1431 103° East 346 641 16.400 2.365 Climbing Denver Center
Thu 14:56:00 39.8759 -104.5041 84° East  Level Estimated
Thu 14:56:25 39.8797 -103.9681 100° East 406 752 18.800  Level Denver Center
Thu 14:57:27 39.8792 -103.8039 90° East 427 790 21.800 2.032 Climbing Denver Center
Thu 14:58:29 39.8914 -103.6517 84° East 430 797 23.000 529 Climbing Denver Center
Thu 14:59:43 39.9131 -103.4714 81° East 448 830 23.000 1.147 Level Denver Center
Thu 15:00:45 39.9336 -103.2861 82° East 456 845 25.600 2.226 Climbing Denver Center
Thu 15:01:47 39.9550 -103.1006 81° East 465 861 27.600 1.645 Climbing Denver Center
Thu 15:02:49 39.9733 -102.9328 82° East 485 898 29.000 1.500 Climbing Denver Center
Thu 15:03:51 39.9950 -102.7283 82° East 510 945 30.700 1.452 Climbing Denver Center
Thu 15:04:53 40.0133 -102.5497 82° East 519 961 32.000 1.572 Climbing Denver Center
Thu 15:06:00 40.0268 -102.3656 83° East  Level FlightAware Approximate
Thu 15:06:58 40.0544 -102.1569 83° East 526 974 35.600  Level Denver Center
Thu 15:08:00 40.0753 -101.9483 82° East 522 967 37.300 1.210 Climbing Denver Center
Thu 15:09:02 40.0942 -101.7706 82° East 519 961 38.100 548 Climbing Denver Center
Thu 15:11:06 40.1308 -101.3789 83° East 523 969 39.000 273 Climbing Denver Center
Thu 15:12:20 40.1539 -101.1394 83° East 523 969 39.000  Level Denver Center
Thu 15:13:22 40.1714 -100.9606 83° East 522 967 39.000  Level Denver Center
Thu 15:14:24 40.1894 -100.7528 83° East 519 961 39.000  Level Denver Center
Thu 15:15:26 40.2042 -100.5742 84° East 519 961 39.000  Level Denver Center
Thu 15:16:28 40.2064 -100.3647 89° East 521 966 39.000  Level Denver Center
Thu 15:17:30 40.2103 -100.1856 88° East 519 961 39.000  Level Denver Center
Thu 15:18:44 40.2128 -99.9750 89° East 520 962 39.000  Level Denver Center
Thu 15:19:47 40.2161 -99.7328 89° East 523 969 39.000  Level Denver Center
Thu 15:20:49 40.2181 -99.5539 89° East 518 959 39.000  Level Denver Center
Thu 15:21:51 40.2186 -99.3428 90° East 521 966 39.000  Level Denver Center
Thu 15:22:53 40.2208 -99.1614 89° East 521 966 39.000  Level Denver Center
Thu 15:23:55 40.2214 -98.9489 90° East 524 970 39.000  Level Denver Center
Thu 15:24:28 40.2228 -98.8547 89° East 522 967 39.000  Level Minneapolis Center
Thu 15:25:30 40.2228 -98.6631 90° East 524 970 39.000  Level Minneapolis Center
Thu 15:26:32 40.2236 -98.4700 90° East 528 978 39.000  Level Minneapolis Center
Thu 15:27:34 40.2208 -98.2781 91° East 529 980 39.000  Level Minneapolis Center
Thu 15:28:36 40.2211 -98.0881 90° East 528 978 39.000  Level Minneapolis Center
Thu 15:29:38 40.2211 -97.8603 90° East 525 972 39.000  Level Minneapolis Center
Thu 15:30:40 40.2203 -97.6703 90° East 524 970 39.000  Level Minneapolis Center
Thu 15:31:42 40.2186 -97.4811 91° East 523 969 39.000  Level Minneapolis Center
Thu 15:32:43 40.2167 -97.2928 91° East 522 967 39.000  Level Minneapolis Center
Thu 15:33:45 40.2144 -97.1031 91° East 522 967 39.000  Level Minneapolis Center
Thu 15:34:47 40.2111 -96.9139 91° East 522 967 39.000  Level Minneapolis Center
Thu 15:35:49 40.2067 -96.6831 91° East 525 972 39.000  Level Minneapolis Center
Thu 15:36:51 40.2044 -96.4942 91° East 523 969 39.000  Level Minneapolis Center
Thu 15:37:53 40.2014 -96.3039 91° East 524 970 39.000  Level Minneapolis Center
Thu 15:38:55 40.1983 -96.1175 91° East 520 962 39.000  Level Minneapolis Center
Thu 15:39:57 40.1989 -95.9272 90° East 524 970 39.000  Level Minneapolis Center
Thu 15:40:59 40.1983 -95.7339 90° East 530 982 39.000  Level Minneapolis Center
Thu 15:42:01 40.1964 -95.5053 91° East 528 978 39.000  Level Minneapolis Center
Thu 15:43:03 40.1967 -95.3139 90° East 528 978 39.000  Level Minneapolis Center
Thu 15:44:05 40.1919 -95.1247 92° East 525 972 39.000  Level Minneapolis Center
Thu 15:45:07 40.1911 -94.9317 90° East 530 982 39.000  Level Minneapolis Center
Thu 15:46:09 40.1889 -94.7375 91° East 534 990 39.000  Level Minneapolis Center
Thu 15:47:11 40.1847 -94.5311 91° East 533 987 39.000  Level Minneapolis Center
Thu 15:48:05 40.1806 -94.3589 92° East 536 993 39.000  Level Kansas City Center
Thu 15:49:06 40.1767 -94.1417 91° East 535 991 39.000  Level Kansas City Center
Thu 15:50:09 40.1689 -93.9511 93° East 540 999 39.000  Level Kansas City Center
Thu 15:51:10 40.1647 -93.7608 92° East 534 990 39.000  Level Kansas City Center
Thu 15:52:14 40.1606 -93.5711 92° East 529 980 39.000  Level Kansas City Center
Thu 15:53:16 40.1564 -93.3803 92° East 529 980 39.000  Level Kansas City Center
Thu 15:54:17 40.1514 -93.1533 92° East 528 978 39.000  Level Kansas City Center
Thu 15:55:20 40.1467 -92.9747 92° East 524 970 39.000  Level Kansas City Center
Thu 15:57:22 40.1325 -92.5714 93° East 534 990 39.000  Level Kansas City Center
Thu 15:58:26 40.1144 -92.3575 96° East 531 983 39.000  Level Kansas City Center
Thu 15:59:28 40.0975 -92.1719 97° East 537 995 39.000  Level Kansas City Center
Thu 16:00:31 40.0792 -91.9811 97° East 536 993 39.000  Level Kansas City Center
Thu 16:01:32 40.0614 -91.7900 97° East 535 991 39.000  Level Kansas City Center
Thu 16:02:36 40.0378 -91.5625 98° East 534 990 39.000  Level Kansas City Center
Thu 16:03:37 40.0200 -91.3722 97° East 532 985 39.000  Level Kansas City Center
Thu 16:04:38 40.0011 -91.1844 97° East 529 980 39.000  Level Kansas City Center
Thu 16:06:00 39.9772 -90.9604 98° East  Level FlightAware Approximate
Thu 16:06:42 39.9628 -90.8053 98° East 524 970 39.000  Level Kansas City Center
Thu 16:07:46 39.9397 -90.5797 98° East 526 974 39.000  Level Kansas City Center
Thu 16:08:46 39.9192 -90.3931 98° East 525 972 39.000  Level Kansas City Center
Thu 16:09:50 39.8983 -90.2047 98° East 526 974 39.000  Level Kansas City Center
Thu 16:10:52 39.8775 -90.0153 98° East 530 982 39.000  Level Kansas City Center
Thu 16:11:52 39.8567 -89.8281 98° East 529 980 39.000  Level Kansas City Center
Thu 16:12:55 39.8383 -89.6386 97° East 531 983 39.000  Level Kansas City Center
Thu 16:14:35 39.8419 -89.2867 89° East 538 996 39.000  Level Indianapolis Center
Thu 16:15:00 39.8422 -89.2197 90° East 530 982 39.000  Level Kansas City Center
Thu 16:16:01 39.8417 -89.0283 90° East 532 985 39.000  Level Kansas City Center
Thu 16:17:04 39.8417 -88.8394 90° East 529 980 39.000  Level Kansas City Center
Thu 16:18:05 39.8422 -88.6497 90° East 527 975 39.000  Level Kansas City Center
Thu 16:19:09 39.8425 -88.4214 90° East 527 975 39.000  Level Kansas City Center
Thu 16:20:09 39.8417 -88.2314 90° East 527 975 39.000  Level Kansas City Center
Thu 16:20:48 39.8378 -88.1056 92° East 523 969 39.000  Level Indianapolis Center
Thu 16:21:50 39.8372 -87.9161 90° East 522 967 39.000  Level Indianapolis Center
Thu 16:22:52 39.8361 -87.7275 90° East 520 962 39.000  Level Indianapolis Center
Thu 16:23:54 39.8333 -87.5378 91° East 521 966 39.000  Level Indianapolis Center
Thu 16:24:56 39.8317 -87.3489 91° East 521 966 39.000  Level Indianapolis Center
Thu 16:25:58 39.8289 -87.1275 91° East 520 962 39.000  Level Indianapolis Center
Thu 16:27:00 39.8261 -86.9378 91° East 521 966 39.000  Level Indianapolis Center
Thu 16:28:02 39.8231 -86.7472 91° East 524 970 39.000  Level Indianapolis Center
Thu 16:29:04 39.8500 -86.5611 79° East 519 961 39.000  Level Indianapolis Center
Thu 16:30:06 39.8772 -86.3728 79° East 519 961 39.000  Level Indianapolis Center
Thu 16:31:08 39.9044 -86.1831 79° East 519 961 39.000  Level Indianapolis Center
Thu 16:32:10 39.9231 -85.9944 83° East 520 962 39.000  Level Indianapolis Center
Thu 16:33:12 39.9294 -85.8033 87° East 524 970 39.000  Level Indianapolis Center
Thu 16:34:14 39.9369 -85.6128 87° East 522 967 39.000  Level Indianapolis Center
Thu 16:35:16 39.9428 -85.4228 88° East 522 967 39.000  Level Indianapolis Center
Thu 16:36:18 39.9519 -85.2019 87° East 521 966 39.000  Level Indianapolis Center
Thu 16:37:20 39.9578 -85.0114 88° East 522 967 39.000  Level Indianapolis Center
Thu 16:38:22 39.9631 -84.8378 88° East 520 962 39.000  Level Indianapolis Center
Thu 16:39:25 39.9683 -84.6156 88° East 520 962 39.000  Level Indianapolis Center
Thu 16:40:27 39.9750 -84.4247 87° East 521 966 39.000  Level Indianapolis Center
Thu 16:41:29 39.9797 -84.2342 88° East 521 966 39.000  Level Indianapolis Center
Thu 16:42:31 39.9850 -84.0456 88° East 516 956 39.000  Level Indianapolis Center
Thu 16:43:33 39.9894 -83.8572 88° East 514 953 39.000  Level Indianapolis Center
Thu 16:44:35 39.9922 -83.6669 89° East 516 956 39.000  Level Indianapolis Center
Thu 16:45:37 39.9969 -83.4761 88° East 513 950 39.000  Level Indianapolis Center
Thu 16:46:39 40.0008 -83.2825 88° East 518 959 39.000  Level Indianapolis Center
Thu 16:47:41 40.0022 -83.0919 89° East 517 958 39.000  Level Indianapolis Center
Thu 16:48:43 40.0067 -82.9022 88° East 518 959 39.000  Level Indianapolis Center
Thu 16:49:45 40.0086 -82.7125 89° East 518 959 39.000  Level Indianapolis Center
Thu 16:50:47 40.0114 -82.4903 89° East 521 966 39.000  Level Indianapolis Center
Thu 16:51:49 40.0128 -82.2992 89° East 522 967 39.000  Level Indianapolis Center
Thu 16:52:51 40.0150 -82.1072 89° East 524 970 39.000  Level Indianapolis Center
Thu 16:53:53 40.0153 -81.9181 90° East 520 962 39.000  Level Indianapolis Center
Thu 16:54:56 40.0164 -81.7131 90° East 519 961 39.000  Level Indianapolis Center
Thu 16:55:58 40.0114 -81.5247 92° East 516 956 39.000  Level Indianapolis Center
Thu 16:57:00 39.9697 -81.3439 107° East 517 958 39.000  Level Indianapolis Center
Thu 16:58:02 39.9275 -81.1694 107° East 519 961 39.000  Level Indianapolis Center
Thu 16:58:38 39.8975 -81.0350 106° East 514 953 39.000  Level Cleveland Center
Thu 16:59:38 39.8522 -80.8589 108° East 519 961 39.000  Level Cleveland Center
Thu 17:01:50 39.7522 -80.4742 109° East 513 950 39.000 -63 Level Washington Center
Thu 17:02:50 39.7072 -80.2986 108° East 513 950 38.800 -1.350 Descending Washington Center
Thu 17:03:50 39.6597 -80.1256 110° East 513 950 36.300 -2.700 Descending Washington Center
Thu 17:04:50 39.6156 -79.9639 109° East 519 961 33.400 -2.900 Descending Washington Center
Thu 17:05:50 39.5675 -79.7914 110° East 514 953 30.500 -2.700 Descending Washington Center
Thu 17:06:50 39.5233 -79.6192 108° East 514 953 28.000 -1.750 Descending Washington Center
Thu 17:07:50 39.4872 -79.4503 105° East 509 943 27.000 -1.650 Descending Washington Center
Thu 17:08:50 39.4514 -79.2631 104° East 498 922 24.700 -2.300 Descending Washington Center
Thu 17:09:50 39.4231 -79.0978 102° East 481 892 22.400 -2.200 Descending Washington Center
Thu 17:10:50 39.3919 -78.9431 105° East 462 856 20.300 -2.000 Descending Washington Center
Thu 17:11:50 39.3647 -78.7942 103° East 439 813 18.400 -2.000 Descending Washington Center
Thu 17:12:50 39.3414 -78.6536 102° East 415 769 16.300 -2.100 Descending Washington Center
Thu 17:13:50 39.3156 -78.5156 104° East 408 756 14.200 -2.050 Descending Washington Center
Thu 17:14:50 39.2897 -78.3806 104° East 395 732 12.200 -1.587 Descending Washington Center
Thu 17:15:51 39.2378 -78.2739 122° Southeast 369 684 11.000 -1.200 Descending Washington Center
Thu 17:16:50 39.1878 -78.1783 124° Southeast 340 629 9.800 -1.261 Descending Washington Center
Thu 17:17:50 39.1397 -78.0883 125° Southeast 323 599 8.500 -1.400 Descending Washington Center
Thu 17:18:50 39.0956 -78.0042 124° Southeast 300 555 7.000 -800 Descending Washington Center
Thu 17:19:50 39.0514 -77.9222 125° Southeast 287 531 6.900 -100 Descending Washington Center
Thu 17:20:50 39.0150 -77.8544 125° Southeast 269 499 6.800 -450 Descending Washington Center
Thu 17:21:50 38.9689 -77.7675 124° Southeast 269 499 6.000 -400 Descending Washington Center
Thu 17:22:50 38.9578 -77.6844 100° East 263 488 6.000  Level Washington Center
Thu 17:23:39 38.9333 -77.6167 115° Southeast 235 435 6.000  Level Potomac TRACON
Thu 17:24:45 38.8667 -77.5833 159° South 229 425 6.000 -450 Level Potomac TRACON
Thu 17:25:39 38.8167 -77.5667 165° South 220 407 5.100 -1.043 Descending Potomac TRACON
Thu 17:26:40 38.7500 -77.5833 191° South 220 407 4.000 -545 Descending Potomac TRACON
Thu 17:27:40 38.7333 -77.5167 108° East 191 354 4.000 -450 Level Potomac TRACON
Thu 17:28:40 38.7667 -77.4667 49° Northeast 182 336 3.100 -800 Descending Potomac TRACON
Thu 17:29:40 38.8167 -77.4667 360° North 181 335 2.400 -645 Descending Potomac TRACON
Thu 17:30:41 38.8667 -77.4667 360° North 173 320 1.800 -694 Descending Potomac TRACON
Thu 17:31:41 38.9167 -77.4667 360° North 148 274 1.000 -800 Descending Potomac TRACON
Thu 17:33:00 38.9333 -77.4500 15° North  Level FlightAware Approximate
Thu 17:40:00 38.9474 -77.4599 15° North  Level Estimated
Thu 17:41:00 38.9474 -77.4599 15° North  Level Estimated

Login

Don't have an account? Register now (free) for customized features, flight alerts, and more!